Time;durP1;ratioP1;P1;durP2;ratioP2;P2;SDS_P1;SDS_P2;PMS_P1;PMS_P2;Temp;Humidity;BMP_temperature;BMP_pressure;BME280_temperature;BME280_humidity;BME280_pressure;Samples;Min_cycle;Max_cycle;Signal;HPM_P1;HPM_P2
2023/06/29 00:01:34;;;;;;;9.40;8.40;;;;;;;14.11;83.42;100120.00;104284;277;114727;-57
2023/06/29 00:04:08;;;;;;;8.90;7.60;;;;;;;14.09;83.46;100118.17;104301;277;95740;-57
2023/06/29 00:06:43;;;;;;;8.20;7.30;;;;;;;14.06;83.65;100114.44;104294;277;96696;-57
2023/06/29 00:09:17;;;;;;;8.40;7.60;;;;;;;14.02;83.57;100117.54;104300;277;119708;-57
2023/06/29 00:11:50;;;;;;;;;;;;;;;13.99;83.48;100121.79;104305;277;105616;-59
2023/06/29 00:14:24;;;;;;;8.70;7.80;;;;;;;13.92;83.50;100118.45;104738;277;113741;-59
2023/06/29 00:16:58;;;;;;;8.20;7.40;;;;;;;13.88;83.33;100124.98;104271;277;97044;-59
2023/06/29 00:19:30;;;;;;;;;;;;;;;13.84;83.26;100119.07;104740;277;95802;-59
2023/06/29 00:22:04;;;;;;;8.70;7.80;;;;;;;13.82;83.42;100121.50;104290;277;120103;-59
2023/06/29 00:24:42;;;;;;;8.30;7.40;;;;;;;13.78;83.51;100128.04;104252;277;106426;-59
2023/06/29 00:27:17;;;;;;;9.10;7.80;;;;;;;13.72;83.53;100125.77;104267;277;113810;-56
2023/06/29 00:29:51;;;;;;;8.90;8.10;;;;;;;13.73;83.70;100129.13;104280;277;96280;-56
2023/06/29 00:32:25;;;;;;;8.40;7.50;;;;;;;13.71;83.56;100129.38;104283;277;98101;-57
2023/06/29 00:34:59;;;;;;;9.30;7.40;;;;;;;13.66;83.74;100134.00;104268;277;119733;-57
2023/06/29 00:37:33;;;;;;;8.50;6.60;;;;;;;13.60;83.66;100128.05;104289;277;105432;-59
2023/06/29 00:40:09;;;;;;;7.60;6.90;;;;;;;13.56;83.78;100130.02;104282;277;115104;-59
2023/06/29 00:42:43;;;;;;;8.30;7.60;;;;;;;13.54;83.75;100126.02;104271;277;96873;-57
2023/06/29 00:45:18;;;;;;;8.30;6.90;;;;;;;13.52;83.90;100128.49;104735;277;97370;-57
2023/06/29 00:47:52;;;;;;;8.20;7.40;;;;;;;13.52;83.99;100126.48;104289;277;121155;-59
2023/06/29 00:50:27;;;;;;;8.10;7.30;;;;;;;13.50;84.03;100121.50;104759;277;106592;-58
2023/06/29 00:53:01;;;;;;;12.20;7.60;;;;;;;13.50;84.13;100118.61;104258;277;114419;-59
2023/06/29 00:55:37;;;;;;;8.20;7.40;;;;;;;13.51;84.38;100116.89;104295;277;97113;-58
2023/06/29 00:58:11;;;;;;;7.90;6.80;;;;;;;13.56;84.14;100116.91;104304;277;98038;-59
2023/06/29 01:00:44;;;;;;;;;;;;;;;13.54;84.25;100118.59;104730;277;121213;-57
2023/06/29 01:03:18;;;;;;;7.50;6.80;;;;;;;13.46;84.39;100121.92;104263;277;105698;-57
2023/06/29 01:05:55;;;;;;;7.80;7.00;;;;;;;13.44;84.35;100119.42;104724;277;113930;-59
2023/06/29 01:08:36;;;;;;;8.90;7.60;;;;;;;13.40;84.27;100114.43;104250;277;96134;-59
2023/06/29 01:11:11;;;;;;;7.70;6.90;;;;;;;13.40;84.40;100113.31;104307;277;97368;-57
2023/06/29 01:13:46;;;;;;;8.80;7.20;;;;;;;13.38;84.26;100115.39;104282;277;121224;-56
2023/06/29 01:16:21;;;;;;;8.30;7.30;;;;;;;13.34;84.24;100114.21;104277;277;104363;-59
2023/06/29 01:18:57;;;;;;;7.60;6.80;;;;;;;13.32;84.40;100114.71;104271;277;114836;-59
2023/06/29 01:21:37;;;;;;;9.10;7.00;;;;;;;13.28;84.46;100115.64;104724;277;97126;-57
2023/06/29 01:24:13;;;;;;;7.80;7.10;;;;;;;13.23;84.44;100112.54;104321;277;98531;-57
2023/06/29 01:26:48;;;;;;;7.70;7.00;;;;;;;13.22;84.61;100112.53;104310;277;120380;-57
2023/06/29 01:29:25;;;;;;;7.30;6.40;;;;;;;13.22;84.76;100113.95;104728;277;103609;-57
2023/06/29 01:32:03;;;;;;;10.00;7.40;;;;;;;13.19;84.75;100105.16;104300;277;113734;-56
2023/06/29 01:34:38;;;;;;;7.80;7.00;;;;;;;13.14;84.97;100103.09;104298;277;95969;-56
2023/06/29 01:37:19;;;;;;;7.60;6.90;;;;;;;13.14;84.84;100100.66;104780;277;97944;-59
2023/06/29 01:39:59;;;;;;;9.70;7.10;;;;;;;13.12;84.83;100100.92;104318;277;120311;-59
2023/06/29 01:42:36;;;;;;;7.90;7.10;;;;;;;13.10;84.82;100103.98;104294;277;105926;-59
2023/06/29 01:45:14;;;;;;;9.00;7.10;;;;;;;13.09;84.87;100107.58;104294;285;112600;-59
2023/06/29 01:47:48;;;;;;;8.50;7.70;;;;;;;13.06;84.96;100110.04;104253;277;95589;-59
2023/06/29 01:50:22;;;;;;;7.60;6.70;;;;;;;13.07;85.00;100103.50;104764;277;97421;-59
2023/06/29 01:52:56;;;;;;;8.20;7.20;;;;;;;13.05;85.30;100101.61;104256;277;121000;-59
2023/06/29 01:55:30;;;;;;;8.90;7.20;;;;;;;13.05;85.07;100101.78;104284;277;104334;-57
2023/06/29 01:58:04;;;;;;;9.00;6.90;;;;;;;13.01;85.05;100102.13;104190;277;114724;-56
2023/06/29 02:00:39;;;;;;;7.60;6.50;;;;;;;12.97;85.29;100102.96;104506;278;95622;-58
2023/06/29 02:03:13;;;;;;;7.60;6.80;;;;;;;12.96;85.39;100103.98;104501;278;98803;-59
2023/06/29 02:05:47;;;;;;;7.20;6.60;;;;;;;12.99;85.57;100105.01;104104;278;120073;-58
2023/06/29 02:08:20;;;;;;;8.20;7.30;;;;;;;13.00;85.34;100101.71;104084;278;105419;-59
2023/06/29 02:10:54;;;;;;;8.60;7.70;;;;;;;13.00;85.64;100104.25;104523;278;114123;-57
2023/06/29 02:13:29;;;;;;;8.60;7.70;;;;;;;13.04;85.80;100107.76;104052;278;97643;-57
2023/06/29 02:16:02;;;;;;;8.30;7.30;;;;;;;13.06;85.95;100113.05;104120;278;97650;-59
2023/06/29 02:18:36;;;;;;;14.20;8.00;;;;;;;13.09;86.00;100115.20;103931;280;121813;-59
2023/06/29 02:21:10;;;;;;;8.10;7.30;;;;;;;13.08;86.18;100119.12;104115;278;103617;-57
2023/06/29 02:23:44;;;;;;;9.50;7.20;;;;;;;13.08;86.08;100126.20;104114;278;113090;-57
2023/06/29 02:26:19;;;;;;;8.60;7.80;;;;;;;13.10;86.04;100130.80;104089;278;96376;-57
2023/06/29 02:28:52;;;;;;;8.80;7.80;;;;;;;13.14;85.92;100128.58;104082;279;98676;-57
2023/06/29 02:31:26;;;;;;;7.60;6.80;;;;;;;13.20;86.02;100136.40;104088;278;120046;-56
2023/06/29 02:34:00;;;;;;;8.90;7.60;;;;;;;13.20;86.14;100133.57;104097;278;105554;-57
2023/06/29 02:36:34;;;;;;;7.70;7.00;;;;;;;13.20;86.09;100138.29;104092;279;114748;-57
2023/06/29 02:39:08;;;;;;;8.70;7.90;;;;;;;13.23;86.28;100135.66;104072;279;96174;-57
2023/06/29 02:41:42;;;;;;;9.10;8.20;;;;;;;13.22;86.20;100140.13;104464;279;98191;-56
2023/06/29 02:44:16;;;;;;;8.70;7.90;;;;;;;13.20;86.07;100140.66;104058;279;120622;-56
2023/06/29 02:46:50;;;;;;;8.30;6.90;;;;;;;13.23;86.34;100140.99;104081;279;104595;-59
2023/06/29 02:49:22;;;;;;;;;;;;;;;13.23;86.33;100146.49;104478;279;113127;-59
2023/06/29 02:51:56;;;;;;;8.00;7.20;;;;;;;13.31;86.41;100151.86;104084;279;96928;-56
2023/06/29 02:54:30;;;;;;;8.30;7.50;;;;;;;13.35;86.40;100149.88;104070;279;96271;-56
2023/06/29 02:57:04;;;;;;;8.40;7.30;;;;;;;13.35;86.46;100153.97;104069;279;120240;-59
2023/06/29 02:59:39;;;;;;;8.40;7.50;;;;;;;13.38;86.36;100159.05;104074;279;104773;-59
2023/06/29 03:02:13;;;;;;;8.60;7.00;;;;;;;13.39;86.39;100157.81;104058;279;112952;-59
2023/06/29 03:04:47;;;;;;;8.20;7.40;;;;;;;13.41;86.19;100163.31;104081;279;97112;-59
2023/06/29 03:07:21;;;;;;;8.50;7.70;;;;;;;13.47;86.18;100161.71;104087;279;97685;-59
2023/06/29 03:09:55;;;;;;;9.00;8.00;;;;;;;13.51;86.15;100163.20;104063;279;121015;-59
2023/06/29 03:12:29;;;;;;;8.20;7.40;;;;;;;13.59;86.24;100156.73;104079;279;104865;-57
2023/06/29 03:15:03;;;;;;;7.70;6.90;;;;;;;13.66;86.15;100156.58;104062;279;113460;-57
2023/06/29 03:17:35;;;;;;;;;;;;;;;13.71;86.13;100158.89;104027;279;97041;-57
2023/06/29 03:20:13;;;;;;;8.30;7.30;;;;;;;13.74;86.22;100153.91;104073;279;96824;-57
2023/06/29 03:22:47;;;;;;;7.70;6.90;;;;;;;13.81;86.25;100153.05;104056;279;119793;-57
2023/06/29 03:25:21;;;;;;;9.30;7.30;;;;;;;13.90;86.43;100154.34;104457;279;106316;-57
2023/06/29 03:27:53;;;;;;;;;;;;;;;14.01;86.15;100151.31;103832;280;116374;-59
2023/06/29 03:30:27;;;;;;;9.00;7.20;;;;;;;14.30;86.24;100153.52;104045;279;96873;-59
2023/06/29 03:33:01;;;;;;;6.70;6.10;;;;;;;15.13;85.28;100153.77;104082;279;98539;-59
2023/06/29 03:35:35;;;;;;;7.80;6.10;;;;;;;15.93;84.52;100156.41;104079;279;120950;-59
2023/06/29 03:38:10;;;;;;;7.10;6.40;;;;;;;16.66;84.01;100154.95;103728;279;108352;-59
2023/06/29 03:40:44;;;;;;;7.00;6.30;;;;;;;17.53;82.76;100158.98;104118;278;114995;-57
2023/06/29 03:43:16;;;;;;;;;;;;;;;18.68;81.10;100161.64;104095;278;94849;-57
2023/06/29 03:45:50;;;;;;;7.50;6.40;;;;;;;19.68;79.58;100163.60;104126;278;95265;-59
2023/06/29 03:48:27;;;;;;;5.90;5.30;;;;;;;20.12;77.73;100166.08;104086;279;121243;-59
2023/06/29 03:51:01;;;;;;;8.00;6.20;;;;;;;19.55;76.95;100166.18;104094;279;104853;-57
2023/06/29 03:53:35;;;;;;;7.00;5.70;;;;;;;18.74;76.80;100165.24;104093;278;114959;-57
2023/06/29 03:56:10;;;;;;;6.90;5.80;;;;;;;18.16;76.70;100169.33;104097;279;93653;-57
2023/06/29 03:58:44;;;;;;;6.40;5.80;;;;;;;17.88;76.80;100170.84;104529;279;97904;-57
2023/06/29 04:01:18;;;;;;;6.60;5.70;;;;;;;17.73;76.98;100173.25;104062;279;120055;-57
2023/06/29 04:03:53;;;;;;;7.10;6.00;;;;;;;17.59;77.11;100172.52;104524;279;105942;-57
2023/06/29 04:06:27;;;;;;;6.90;6.20;;;;;;;17.61;77.06;100174.20;104060;266;113869;-59
2023/06/29 04:09:01;;;;;;;6.40;5.70;;;;;;;17.66;77.10;100174.05;104091;278;94524;-59
2023/06/29 04:11:35;;;;;;;6.10;5.50;;;;;;;17.69;77.34;100174.05;104110;278;96112;-57
2023/06/29 04:14:28;;;;;;;7.70;6.30;;;;;;;17.45;77.58;100181.59;104507;279;119626;-57
2023/06/29 04:17:03;;;;;;;6.40;5.80;;;;;;;17.20;77.64;100178.48;104073;278;106140;-59
2023/06/29 04:19:35;;;;;;;;;;;;;;;17.01;77.90;100190.33;104092;279;113568;-59
2023/06/29 04:22:09;;;;;;;6.20;5.20;;;;;;;16.80;78.40;100199.36;104093;279;96247;-59
2023/06/29 04:24:43;;;;;;;5.40;4.90;;;;;;;16.73;78.67;100193.77;104069;279;98633;-59
2023/06/29 04:27:17;;;;;;;7.50;5.50;;;;;;;16.77;78.83;100195.73;104106;279;119523;-59
2023/06/29 04:29:51;;;;;;;6.70;6.00;;;;;;;16.82;78.87;100201.80;104119;279;104474;-59
2023/06/29 04:32:25;;;;;;;5.90;5.40;;;;;;;16.71;79.31;100199.50;104100;278;114576;-57
2023/06/29 04:35:01;;;;;;;5.90;5.40;;;;;;;16.69;79.60;100200.00;104030;278;94674;-57
2023/06/29 04:37:41;;;;;;;7.10;6.30;;;;;;;16.62;79.87;100200.53;104122;278;96517;-57
2023/06/29 04:40:16;;;;;;;7.50;5.90;;;;;;;16.68;80.09;100200.90;104085;279;120055;-57
2023/06/29 04:42:55;;;;;;;7.50;5.80;;;;;;;16.75;79.95;100205.33;104074;279;106042;-59
2023/06/29 04:45:31;;;;;;;8.80;6.00;;;;;;;16.78;80.14;100204.77;104485;279;114479;-57
2023/06/29 04:48:06;;;;;;;6.10;5.60;;;;;;;16.82;80.10;100205.52;104084;279;96356;-57
2023/06/29 04:50:40;;;;;;;5.90;5.30;;;;;;;16.87;80.09;100207.65;104079;278;96562;-57
2023/06/29 04:53:14;;;;;;;6.30;5.10;;;;;;;16.81;80.31;100211.05;104051;278;121487;-57
2023/06/29 04:55:47;;;;;;;;;;;;;;;16.64;80.51;100212.91;104100;279;105635;-59
2023/06/29 04:58:21;;;;;;;7.20;6.40;;;;;;;16.60;80.63;100212.10;104068;279;114636;-59
2023/06/29 05:00:56;;;;;;;7.20;5.80;;;;;;;16.64;80.82;100211.55;103931;280;98804;-59
2023/06/29 05:03:30;;;;;;;7.40;6.50;;;;;;;16.67;80.72;100216.78;104094;279;97591;-59
2023/06/29 05:06:04;;;;;;;7.30;6.60;;;;;;;16.64;80.93;100220.39;104098;279;119669;-59
2023/06/29 05:08:38;;;;;;;8.90;7.20;;;;;;;16.64;81.01;100214.33;104110;279;105152;-59
2023/06/29 05:11:12;;;;;;;8.90;7.90;;;;;;;16.57;81.05;100211.77;104098;278;114495;-57
2023/06/29 05:13:47;;;;;;;11.20;8.00;;;;;;;16.57;80.99;100213.10;104093;278;96520;-59
2023/06/29 05:16:21;;;;;;;9.00;7.80;;;;;;;16.57;81.07;100207.11;104112;278;98253;-57
2023/06/29 05:18:55;;;;;;;9.70;8.50;;;;;;;16.61;81.36;100210.08;104102;278;120109;-57
2023/06/29 05:21:29;;;;;;;9.60;8.70;;;;;;;16.61;81.41;100211.12;104105;278;105365;-57
2023/06/29 05:24:03;;;;;;;11.40;10.10;;;;;;;16.58;81.40;100207.77;104501;279;114522;-57
2023/06/29 05:26:37;;;;;;;11.40;9.00;;;;;;;16.66;81.40;100204.39;104088;278;96952;-59
2023/06/29 05:29:12;;;;;;;10.50;9.10;;;;;;;16.72;81.41;100205.96;104092;278;98103;-59
2023/06/29 05:31:46;;;;;;;11.10;9.40;;;;;;;16.81;81.31;100209.80;104105;278;120820;-59
2023/06/29 05:34:20;;;;;;;10.70;9.20;;;;;;;16.88;81.46;100217.95;104080;278;105144;-59
2023/06/29 05:36:55;;;;;;;13.10;9.70;;;;;;;16.83;81.49;100219.13;104076;278;114727;-57
2023/06/29 05:39:29;;;;;;;10.10;8.50;;;;;;;16.89;81.35;100220.80;104095;278;96450;-57
2023/06/29 05:42:01;;;;;;;;;;;;;;;16.99;81.40;100224.77;104100;279;95335;-57
2023/06/29 05:44:35;;;;;;;10.30;9.20;;;;;;;17.13;81.39;100216.27;104096;278;121242;-57
2023/06/29 05:47:09;;;;;;;;;;;;;;;17.16;81.56;100222.66;104122;278;104284;-59
2023/06/29 05:49:43;;;;;;;9.40;8.10;;;;;;;17.19;81.54;100220.00;104069;278;114238;-59
2023/06/29 05:52:18;;;;;;;11.00;8.50;;;;;;;17.27;81.36;100219.98;104098;279;94334;-60
2023/06/29 05:54:55;;;;;;;12.00;9.10;;;;;;;17.36;81.39;100219.14;104119;278;96606;-59
2023/06/29 05:57:30;;;;;;;12.00;9.50;;;;;;;17.49;81.36;100218.91;104548;278;119919;-59
2023/06/29 06:00:07;;;;;;;10.90;8.90;;;;;;;17.53;81.37;100216.75;104104;278;105863;-59
2023/06/29 06:02:42;;;;;;;9.80;8.20;;;;;;;17.66;81.11;100216.60;104098;278;114885;-59
2023/06/29 06:05:16;;;;;;;8.40;7.30;;;;;;;17.84;80.81;100215.90;104087;278;94918;-66
2023/06/29 06:07:52;;;;;;;9.70;8.30;;;;;;;17.93;80.57;100218.10;104544;278;97308;-56
2023/06/29 06:10:26;;;;;;;11.80;8.10;;;;;;;18.05;80.27;100221.21;104079;278;120025;-57
2023/06/29 06:12:59;;;;;;;;;;;;;;;18.19;80.32;100223.19;104153;278;103854;-59
2023/06/29 06:15:35;;;;;;;9.10;7.80;;;;;;;18.43;80.09;100220.70;104112;278;113881;-60
2023/06/29 06:18:09;;;;;;;10.00;8.10;;;;;;;18.82;79.78;100213.89;104093;278;95298;-57
2023/06/29 06:20:43;;;;;;;9.00;7.90;;;;;;;19.16;79.59;100215.44;103960;278;95767;-56
2023/06/29 06:23:16;;;;;;;;;;;;;;;19.59;79.06;100212.73;104122;278;121242;-58
2023/06/29 06:25:50;;;;;;;9.50;8.20;;;;;;;20.00;78.39;100216.45;104106;278;104449;-61
2023/06/29 06:28:23;;;;;;;;;;;;;;;20.20;77.71;100212.64;104116;278;114893;-60
2023/06/29 06:30:57;;;;;;;9.80;8.40;;;;;;;20.49;77.43;100217.92;103701;278;502609;-61
2023/06/29 06:33:32;;;;;;;9.30;8.40;;;;;;;20.59;76.62;100216.29;104108;278;97538;-60
2023/06/29 06:36:07;;;;;;;9.60;8.00;;;;;;;22.06;77.10;100209.79;104118;278;119657;-60
2023/06/29 06:38:41;;;;;;;8.40;7.40;;;;;;;23.71;75.13;100209.80;104091;278;105384;-61
2023/06/29 06:41:15;;;;;;;9.00;7.50;;;;;;;24.81;72.53;100213.13;104099;278;112768;-61
2023/06/29 06:43:49;;;;;;;8.30;7.50;;;;;;;25.20;70.82;100213.56;104100;279;93213;-66
2023/06/29 06:49:40;;;;;;;7.40;6.70;;;;;;;25.63;66.56;100215.55;104045;277;119217;-66
2023/06/29 06:52:14;;;;;;;7.30;6.60;;;;;;;24.91;66.09;100218.67;104296;277;105779;-66
2023/06/29 06:54:46;;;;;;;;;;;;;;;24.87;65.25;100220.48;104298;277;115106;-64
2023/06/29 06:57:21;;;;;;;8.00;6.60;;;;;;;24.63;64.87;100219.23;104306;277;93681;-59
2023/06/29 06:59:55;;;;;;;8.30;6.50;;;;;;;24.21;64.59;100216.21;104319;277;98248;-60
2023/06/29 07:02:30;;;;;;;8.60;6.60;;;;;;;25.51;65.67;100215.65;104290;277;120683;-55
2023/06/29 07:05:05;;;;;;;6.70;5.70;;;;;;;27.90;63.24;100202.41;104337;276;105747;-55
2023/06/29 07:07:39;;;;;;;6.10;5.60;;;;;;;29.54;60.62;100204.00;104293;277;114012;-60
2023/06/29 07:10:13;;;;;;;7.10;5.50;;;;;;;30.71;57.94;100197.55;104271;277;94047;-60
2023/06/29 07:12:47;;;;;;;6.20;5.60;;;;;;;31.69;55.81;100196.67;104327;277;97722;-59
2023/06/29 07:15:22;;;;;;;6.20;5.60;;;;;;;32.37;53.86;100189.77;104319;277;120483;-59
2023/06/29 07:17:56;;;;;;;5.80;4.90;;;;;;;33.06;51.56;100189.86;104320;277;105235;-59
2023/06/29 07:20:31;;;;;;;7.50;5.70;;;;;;;33.38;49.79;100183.73;104317;277;113480;-59
2023/06/29 07:23:05;;;;;;;5.40;4.00;;;;;;;34.11;48.26;100183.92;104317;277;94761;-59
2023/06/29 07:25:40;;;;;;;5.90;4.70;;;;;;;34.67;47.17;100177.77;104085;277;97563;-60
2023/06/29 07:28:15;;;;;;;4.60;4.10;;;;;;;35.15;45.76;100173.13;104316;277;118274;-59
2023/06/29 07:30:50;;;;;;;5.40;4.60;;;;;;;35.36;44.80;100174.75;104742;277;105264;-59
2023/06/29 07:33:25;;;;;;;4.30;3.90;;;;;;;35.26;43.97;100169.75;104306;277;114562;-57
2023/06/29 07:36:00;;;;;;;4.40;3.80;;;;;;;35.50;42.49;100173.39;104292;277;93820;-61
2023/06/29 07:38:35;;;;;;;4.10;3.40;;;;;;;35.73;41.69;100167.22;104297;277;98291;-61
2023/06/29 07:41:10;;;;;;;8.60;4.10;;;;;;;36.11;41.42;100158.80;104319;277;118935;-57
2023/06/29 07:43:50;;;;;;;4.00;3.60;;;;;;;36.30;40.31;100161.98;104309;277;105502;-57
2023/06/29 07:46:24;;;;;;;5.00;3.50;;;;;;;36.52;39.78;100158.98;104301;277;114576;-57
2023/06/29 07:48:59;;;;;;;3.40;3.10;;;;;;;36.45;39.59;100161.29;104295;277;94899;-57
2023/06/29 07:51:34;;;;;;;3.60;3.30;;;;;;;36.45;38.83;100162.34;104321;275;97558;-57
2023/06/29 07:54:08;;;;;;;3.80;3.20;;;;;;;36.69;38.23;100157.83;104775;277;121649;-57
2023/06/29 07:56:43;;;;;;;6.00;4.00;;;;;;;36.74;38.02;100154.47;104337;277;105734;-57
2023/06/29 07:59:18;;;;;;;3.60;3.00;;;;;;;37.22;37.05;100149.41;104344;277;114818;-57
2023/06/29 08:01:53;;;;;;;3.60;3.10;;;;;;;37.24;36.77;100147.44;104328;277;93846;-61
2023/06/29 08:04:27;;;;;;;3.30;3.00;;;;;;;37.33;36.09;100147.37;104331;277;97685;-61
2023/06/29 08:07:01;;;;;;;4.60;3.20;;;;;;;37.63;35.73;100147.70;104350;277;119289;-61
2023/06/29 08:09:35;;;;;;;4.20;3.30;;;;;;;37.87;35.29;100146.67;104338;277;105853;-61
2023/06/29 08:12:11;;;;;;;3.90;3.00;;;;;;;38.03;35.09;100142.02;104306;277;114957;-58
2023/06/29 08:14:45;;;;;;;4.40;2.90;;;;;;;37.78;34.30;100145.30;104305;277;93806;-58
2023/06/29 08:17:19;;;;;;;7.20;3.30;;;;;;;37.76;33.85;100147.92;104334;277;98331;-57
2023/06/29 08:19:53;;;;;;;4.50;3.00;;;;;;;37.80;33.01;100150.26;104302;277;120991;-57
2023/06/29 08:22:29;;;;;;;3.40;3.00;;;;;;;37.41;32.58;100142.45;104332;277;105737;-58
2023/06/29 08:25:04;;;;;;;4.10;3.20;;;;;;;37.36;32.87;100138.73;104325;276;113977;-58
2023/06/29 08:27:39;;;;;;;3.90;2.90;;;;;;;37.44;33.32;100133.27;104741;277;95244;-58
2023/06/29 08:30:15;;;;;;;3.30;3.00;;;;;;;37.18;32.83;100137.09;104108;279;97085;-57
2023/06/29 08:32:50;;;;;;;3.30;3.00;;;;;;;36.53;33.45;100137.59;104321;277;119703;-60
2023/06/29 08:35:24;;;;;;;3.30;3.00;;;;;;;36.72;33.26;100139.68;104319;277;105333;-62
2023/06/29 08:37:58;;;;;;;5.60;3.10;;;;;;;36.22;32.90;100135.83;104290;277;113932;-57
2023/06/29 08:40:36;;;;;;;3.20;2.90;;;;;;;34.98;33.20;100142.64;104335;277;94984;-59
2023/06/29 08:43:11;;;;;;;3.30;3.00;;;;;;;34.02;34.66;100145.57;104769;277;96602;-57
2023/06/29 08:45:48;;;;;;;3.80;3.40;;;;;;;34.50;35.35;100142.14;104757;277;120347;-57
2023/06/29 08:48:24;;;;;;;4.40;3.10;;;;;;;35.20;34.70;100137.61;104333;277;105444;-60
2023/06/29 08:51:03;;;;;;;4.00;3.30;;;;;;;35.96;34.99;100129.82;104288;277;114652;-57
2023/06/29 08:53:40;;;;;;;6.40;4.20;;;;;;;36.55;34.31;100134.90;104295;277;94418;-57
2023/06/29 08:56:15;;;;;;;5.60;4.10;;;;;;;36.61;33.49;100132.95;104341;277;98394;-61
2023/06/29 08:58:50;;;;;;;3.70;3.40;;;;;;;36.56;33.13;100134.52;104328;277;120928;-61
2023/06/29 09:01:24;;;;;;;4.40;3.40;;;;;;;36.32;33.38;100131.40;104781;277;105676;-60
2023/06/29 09:03:58;;;;;;;4.00;3.60;;;;;;;35.66;33.67;100128.09;104296;277;114206;-59
2023/06/29 09:06:32;;;;;;;5.60;3.90;;;;;;;34.64;34.19;100128.43;104320;277;94213;-57
2023/06/29 09:09:06;;;;;;;7.20;4.50;;;;;;;33.73;34.54;100136.45;104324;277;97398;-57
2023/06/29 09:11:41;;;;;;;3.60;3.30;;;;;;;33.34;35.35;100131.65;104306;276;120933;-60
2023/06/29 09:14:16;;;;;;;4.70;3.50;;;;;;;33.15;35.95;100131.70;104323;277;105357;-60
2023/06/29 09:16:58;;;;;;;5.30;3.50;;;;;;;32.87;35.86;100129.61;104317;277;114656;-59
2023/06/29 09:19:33;;;;;;;11.10;6.20;;;;;;;32.53;36.30;100129.59;104295;277;93401;-59
2023/06/29 09:22:08;;;;;;;4.30;3.80;;;;;;;32.58;36.66;100124.27;104363;277;99141;-57
2023/06/29 09:24:42;;;;;;;4.20;3.40;;;;;;;32.23;37.00;100123.94;104294;277;120540;-57
2023/06/29 09:27:17;;;;;;;4.30;3.60;;;;;;;32.18;36.64;100125.34;104341;277;103774;-60
2023/06/29 09:30:01;;;;;;;4.20;3.50;;;;;;;32.04;36.98;100118.53;104305;277;113623;-60
2023/06/29 09:32:37;;;;;;;;;;;;;;;31.79;37.51;100113.03;104039;277;94554;-59
2023/06/29 09:35:12;;;;;;;5.30;3.10;;;;;;;31.75;37.83;100112.89;104342;277;96768;-59
2023/06/29 09:37:50;;;;;;;3.90;3.00;;;;;;;31.67;37.95;100114.70;104067;277;123096;-56
2023/06/29 09:40:24;;;;;;;4.50;3.60;;;;;;;31.51;37.68;100107.89;104330;277;104480;-56
2023/06/29 09:43:02;;;;;;;6.20;3.80;;;;;;;31.10;37.98;100102.11;104315;277;114323;-57
2023/06/29 09:45:36;;;;;;;9.20;5.50;;;;;;;30.57;37.79;100103.94;104309;277;94209;-57
2023/06/29 09:48:12;;;;;;;13.40;6.80;;;;;;;30.08;38.55;100108.20;104089;279;98479;-60
2023/06/29 09:50:55;;;;;;;3.50;3.20;;;;;;;30.06;39.49;100111.15;104332;277;118283;-58
2023/06/29 09:53:38;;;;;;;4.80;3.40;;;;;;;30.20;39.32;100107.92;104794;277;104506;-57
2023/06/29 09:56:15;;;;;;;4.10;3.40;;;;;;;30.30;39.53;100101.64;104297;277;115025;-59
2023/06/29 09:58:50;;;;;;;4.90;3.90;;;;;;;30.57;39.41;100098.55;104309;277;95029;-59
2023/06/29 10:01:26;;;;;;;3.80;3.00;;;;;;;30.73;38.85;100100.59;104113;278;96424;-59
2023/06/29 10:04:02;;;;;;;4.20;3.30;;;;;;;30.80;38.36;100104.75;104310;277;120149;-59
2023/06/29 10:06:43;;;;;;;6.50;3.40;;;;;;;30.62;37.32;100103.85;104320;277;105027;-57
2023/06/29 10:09:22;;;;;;;4.70;3.30;;;;;;;30.37;37.25;100099.15;104334;277;115158;-57
2023/06/29 10:12:00;;;;;;;3.60;3.00;;;;;;;30.31;37.72;100095.48;104358;277;93309;-59
2023/06/29 10:14:36;;;;;;;3.80;3.20;;;;;;;30.49;37.73;100096.62;104765;277;97175;-59
2023/06/29 10:17:17;;;;;;;3.50;3.20;;;;;;;30.54;37.65;100097.36;104337;277;119530;-59
2023/06/29 10:19:53;;;;;;;4.20;3.60;;;;;;;30.31;37.24;100095.91;104322;277;105404;-59
2023/06/29 10:22:29;;;;;;;3.50;3.20;;;;;;;30.47;37.45;100093.98;104298;277;114466;-59
2023/06/29 10:25:09;;;;;;;6.60;4.30;;;;;;;30.59;37.68;100097.00;104320;277;93151;-58
2023/06/29 10:27:45;;;;;;;4.10;3.80;;;;;;;30.73;37.85;100093.38;104331;277;98524;-55
2023/06/29 10:30:22;;;;;;;4.90;3.50;;;;;;;30.86;37.13;100093.86;104756;276;119816;-56
2023/06/29 10:32:55;;;;;;;3.40;3.10;;;;;;;30.28;36.61;100097.15;104309;276;104813;-59
2023/06/29 10:35:33;;;;;;;3.50;3.20;;;;;;;30.13;37.06;100094.77;104331;277;114856;-59
2023/06/29 10:38:13;;;;;;;3.70;3.10;;;;;;;30.03;37.14;100097.94;104317;276;93137;-59
2023/06/29 10:40:57;;;;;;;6.90;4.20;;;;;;;29.80;37.60;100093.73;104334;276;97608;-59
2023/06/29 10:43:51;;;;;;;5.20;4.20;;;;;;;30.02;37.74;100095.16;104791;277;118391;-59
2023/06/29 10:46:45;;;;;;;7.00;3.70;;;;;;;29.83;37.96;100094.57;104094;277;105493;-59
2023/06/29 10:49:29;;;;;;;5.30;3.60;;;;;;;30.06;38.05;100091.14;104288;277;114514;-59
2023/06/29 10:52:07;;;;;;;5.40;3.50;;;;;;;30.07;38.07;100090.20;104298;277;94285;-59
2023/06/29 10:54:41;;;;;;;3.80;3.20;;;;;;;29.79;38.13;100093.18;104338;277;96985;-59
2023/06/29 10:57:16;;;;;;;5.20;3.60;;;;;;;29.67;38.17;100081.48;104267;277;119064;-56
2023/06/29 10:59:50;;;;;;;4.10;3.70;;;;;;;29.64;38.19;100079.79;104290;277;105389;-56
2023/06/29 11:02:24;;;;;;;6.00;3.70;;;;;;;29.50;38.28;100079.48;104306;277;114284;-55
2023/06/29 11:04:58;;;;;;;3.80;3.30;;;;;;;29.57;37.98;100075.44;104291;277;93415;-55
2023/06/29 11:07:33;;;;;;;3.50;3.00;;;;;;;29.36;37.40;100067.35;104351;277;96840;-56
2023/06/29 11:10:09;;;;;;;4.50;3.40;;;;;;;29.19;37.90;100069.70;104720;277;118244;-55
2023/06/29 11:12:44;;;;;;;5.70;3.60;;;;;;;29.24;38.36;100068.14;104338;277;106146;-56
2023/06/29 11:15:19;;;;;;;3.40;3.10;;;;;;;29.56;38.50;100062.31;104275;277;113939;-56
2023/06/29 11:17:55;;;;;;;4.40;3.10;;;;;;;30.04;38.17;100063.52;104314;277;94731;-56
2023/06/29 11:20:31;;;;;;;4.10;3.40;;;;;;;30.33;37.75;100058.92;104327;277;96722;-56
2023/06/29 11:23:07;;;;;;;6.50;4.10;;;;;;;30.36;37.65;100063.77;104310;277;119799;-55
2023/06/29 11:25:42;;;;;;;17.70;8.70;;;;;;;30.22;37.61;100061.53;104294;277;105043;-55
2023/06/29 11:28:20;;;;;;;12.50;5.20;;;;;;;29.91;37.59;100065.08;104278;277;115272;-56
2023/06/29 11:30:55;;;;;;;4.10;3.30;;;;;;;30.04;37.74;100060.60;104296;277;95494;-56
2023/06/29 11:33:29;;;;;;;4.30;3.00;;;;;;;29.88;36.63;100058.48;104725;277;96410;-56
2023/06/29 11:36:07;;;;;;;4.70;3.20;;;;;;;29.41;36.29;100054.39;104728;277;120427;-59
2023/06/29 11:38:42;;;;;;;3.70;3.40;;;;;;;29.56;36.95;100051.14;104319;277;104235;-63
2023/06/29 11:41:19;;;;;;;5.00;3.10;;;;;;;29.69;37.04;100041.94;104306;277;114306;-63
2023/06/29 11:43:57;;;;;;;3.70;3.10;;;;;;;29.73;37.41;100039.53;104305;277;93752;-62
2023/06/29 11:46:34;;;;;;;4.20;2.80;;;;;;;29.28;37.16;100039.73;104745;277;96750;-62
2023/06/29 11:49:08;;;;;;;3.40;2.90;;;;;;;28.93;37.30;100046.27;104756;277;119051;-62
2023/06/29 11:51:43;;;;;;;28.40;4.30;;;;;;;28.71;37.21;100040.79;104313;277;105396;-62
2023/06/29 11:54:18;;;;;;;3.80;3.40;;;;;;;28.52;37.31;100038.64;104756;277;115318;-62
2023/06/29 11:56:52;;;;;;;3.80;2.90;;;;;;;28.63;37.65;100037.88;104347;277;94902;-63
2023/06/29 11:59:27;;;;;;;3.40;3.10;;;;;;;28.60;37.79;100033.44;104294;277;96530;-63
2023/06/29 12:02:03;;;;;;;3.30;3.00;;;;;;;28.30;37.97;100035.20;104302;277;120991;-56
2023/06/29 12:04:37;;;;;;;3.20;2.90;;;;;;;28.34;38.16;100031.70;104766;277;106164;-56